This is the latest recevied weather packets stored in our database for station/object RUSSARO. If no packets are shown the sender has not sent any weather packets the latest 10 day(s).
| Time | Temp. | Humidity | Pressure | Rain* | Wind** | Luminosity | Snow |
|---|---|---|---|---|---|---|---|
| 1777474012 | 6.67° C | 66% | 1025.8 hPa | 0 mm | - | - | - |
| 1777472812 | 7.78° C | 50% | 1025.9 hPa | 0 mm | - | - | - |
| 1777471612 | 7.78° C | 46% | 1025.9 hPa | 0 mm | - | - | - |
| 1777470412 | 7.78° C | 49% | 1025.9 hPa | 0 mm | - | - | - |
| 1777469213 | 7.78° C | 50% | 1026 hPa | 0 mm | - | - | - |
| 1777468011 | 7.78° C | 56% | 1026.1 hPa | 0 mm | - | - | - |
| 1777466812 | 6.67° C | 55% | 1026.1 hPa | 0 mm | - | - | - |
| 1777465612 | 7.22° C | 58% | 1026.2 hPa | 0 mm | - | - | - |
| 1777464411 | 7.22° C | 53% | 1026.4 hPa | 0 mm | - | - | - |
| 1777463212 | 7.22° C | 49% | 1026.4 hPa | 0 mm | - | - | - |
| 1777462012 | 8.33° C | 36% | 1026.6 hPa | 0 mm | - | - | - |
| 1777460812 | 7.78° C | 36% | 1026.7 hPa | 0 mm | - | - | - |
| 1777459611 | 7.78° C | 37% | 1026.8 hPa | 0 mm | - | - | - |
| 1777458412 | 7.78° C | 38% | 1026.8 hPa | 0 mm | - | - | - |
| 1777457211 | 7.22° C | 38% | 1026.8 hPa | 0 mm | - | - | - |
| 1777456011 | 6.67° C | 40% | 1026.9 hPa | 0 mm | - | - | - |
| 1777454811 | 7.22° C | 39% | 1027.1 hPa | 0 mm | - | - | - |
| 1777453611 | 6.67° C | 40% | 1027 hPa | 0 mm | - | - | - |
| 1777452411 | 6.67° C | 38% | 1027 hPa | 0 mm | - | - | - |
| 1777451211 | 6.67° C | 38% | 1027 hPa | 0 mm | - | - | - |
| 1777450011 | 6.11° C | 38% | 1026.9 hPa | 0 mm | - | - | - |
| 1777448811 | 5° C | 43% | 1026.9 hPa | 0 mm | - | - | - |
| 1777447611 | 4.44° C | 48% | 1026.9 hPa | 0 mm | - | - | - |
| 1777446410 | 5.56° C | 50% | 1026.9 hPa | 0 mm | - | - | - |
| 1777445210 | 4.44° C | 51% | 1026.9 hPa | 0 mm | - | - | - |
* Rain latest hour (hover to see other rain measurements)
** Current wind speed in m/s (hover to see current wind gust speed)